This is the latest recevied weather packets stored in our database for station/object WX6YYZ. If no packets are shown the sender has not sent any weather packets the latest 10 day(s).
| Time | Temp. | Humidity | Pressure | Rain* | Wind** | Luminosity | Snow |
|---|---|---|---|---|---|---|---|
| 1777140064 | 17.22° C | 67% | 1013.2 hPa | 0 mm | - | - | - |
| 1777139462 | 16.67° C | 71% | 1013.2 hPa | 0 mm | - | - | - |
| 1777139162 | 16.11° C | 71% | 1013.2 hPa | 0 mm | - | - | - |
| 1777137657 | 15° C | 76% | 1013.2 hPa | 0 mm | - | - | - |
| 1777136391 | 15.56° C | 74% | 1013.5 hPa | 0 mm | - | - | - |
| 1777133652 | 15° C | 73% | 1013.2 hPa | 0 mm | - | - | - |
| 1777132717 | 15.56° C | 70% | 1013.2 hPa | 0 mm | - | - | - |
| 1777131212 | 15° C | 71% | 1013.2 hPa | 0 mm | - | - | - |
| 1777124529 | 12.22° C | 78% | 1012.5 hPa | 0 mm | - | - | - |
| 1777124228 | 12.78° C | 78% | 1012.5 hPa | 0 mm | - | - | - |
| 1777123627 | 12.78° C | 77% | 1012.2 hPa | 0 mm | - | - | - |
| 1777116913 | 12.78° C | 76% | 1012.2 hPa | 0 mm | - | - | - |
| 1777115982 | 12.78° C | 77% | 1012.2 hPa | 0 mm | - | - | - |
| 1777115681 | 12.78° C | 77% | 1012.2 hPa | 0 mm | - | - | - |
| 1777115080 | 12.78° C | 77% | 1011.9 hPa | 0 mm | - | - | - |
| 1777114479 | 12.78° C | 77% | 1011.9 hPa | 0 mm | - | - | - |
| 1777114178 | 12.78° C | 77% | 1011.9 hPa | 0 mm | - | - | - |
| 1777113242 | 12.78° C | 77% | 1011.9 hPa | 0 mm | - | - | - |
| 1777112339 | 12.78° C | 77% | 1011.9 hPa | 0 mm | - | - | - |
| 1777111436 | 12.78° C | 78% | 1011.9 hPa | 0 mm | - | - | - |
| 1777107731 | 12.22° C | 79% | 1012.2 hPa | 0 mm | - | - | - |
| 1777106827 | 12.22° C | 80% | 1012.2 hPa | 0 mm | - | - | - |
| 1777105261 | 12.22° C | 80% | 1012.5 hPa | 0 mm | - | - | - |
| 1777104328 | 12.22° C | 79% | 1012.5 hPa | 0 mm | - | - | - |
| 1777103995 | 12.22° C | 79% | 1012.5 hPa | 0 mm | - | - | - |
* Rain latest hour (hover to see other rain measurements)
** Current wind speed in m/s (hover to see current wind gust speed)